METAR Reports From Nearby Airports

 

KLUD - Decatur, Texas, USA
Distance from Wildwood: ESE 5mi, 8km
Dati ricevuti: Dec 07, 2019 9:35pm
Sereno
Sereno
 Vento da SSE
Vento: SSE 7 mph , 11 km/h
Temperatura: 50°F , 10°C
Temperatura Vento: 47°F , 8°C
P.to Rugiada: 39°F , 4°C
Umidità: 67%
Barometro: 30.11 inHg , 1019.6 hPa
Clouds: Sereno
Visibility: 10 miles , 16 km
2019/12/08 03:35 KLUD 080335Z AUTO 15006KT 10SM CLR 10/04 A3011 RMK AO2 T01020035
KXBP - Bridgeport, Texas, USA
Distance from Wildwood: OSO 11mi, 18km
Dati ricevuti: Dec 07, 2019 9:35pm
Sereno
Sereno
 Vento da SSE
Vento: SSE 6 mph , 9 km/h
Temperatura: 52°F , 11°C
P.to Rugiada: 39°F , 4°C
Umidità: 62%
Barometro: 30.13 inHg , 1020.3 hPa
Clouds: Sereno
Visibility: 10 miles , 16 km
2019/12/08 03:35 KXBP 080335Z AUTO 16005KT 10SM CLR 11/04 A3013 RMK AO2 T01050037
 
K0F2 - Bowie, Texas, USA
Distance from Wildwood: NNO 24mi, 39km
Dati ricevuti: Dec 07, 2019 9:35pm
Sereno
Sereno
 Vento da SSE
Vento: SSE 5 mph , 7 km/h
Temperatura: 50°F , 10°C
Temperatura Vento: 48°F , 9°C
P.to Rugiada: 39°F , 4°C
Umidità: 67%
Barometro: 30.10 inHg , 1019.3 hPa
Clouds: Sereno
Visibility: 10 miles , 16 km
2019/12/08 03:35 K0F2 080335Z AUTO 16004KT 10SM CLR 10/04 A3010 RMK AO2 T00960042
KDTO - Denton, Texas, USA
Distance from Wildwood: E 27mi, 44km
Dati ricevuti: Dec 07, 2019 8:53pm
Sereno
Sereno
 Vento da SSE
Vento: SSE 7 mph , 11 km/h
Temperatura: 48°F , 9°C
Temperatura Vento: 45°F , 7°C
P.to Rugiada: 39°F , 4°C
Umidità: 71%
Barometro: 30.14 inHg , 1020.7 hPa
Clouds: Sereno
Visibility: 10 miles , 16 km
2019/12/08 02:53 KDTO 080253Z 15006KT 10SM CLR 09/04 A3014 RMK AO2 SLP204 T00940044 58009
 
KAFW - Ft Worth/Allianc, Texas, USA
Distance from Wildwood: SE 29mi, 46km
Dati ricevuti: Dec 07, 2019 8:53pm
Few Clouds
Few Clouds
 Vento da S
Vento: S 6 mph , 9 km/h
Temperatura: 52°F , 11°C
P.to Rugiada: 37°F , 3°C
Umidità: 58%
Barometro: 30.13 inHg , 1020.3 hPa
Clouds: Few Clouds
Visibility: 10 miles , 16 km
Cloud details: Few Clouds 25000 ft
2019/12/08 02:53 KAFW 080253Z 17005KT 10SM FEW250 11/03 A3013 RMK AO2 SLP207 T01060033 58009
KFTW - Fort Worth, Texas, USA
Distance from Wildwood: SSE 34mi, 55km
Dati ricevuti: Dec 07, 2019 8:53pm
Sereno
Sereno
 Vento da SE
Vento: SE 7 mph , 11 km/h
Temperatura: 52°F , 11°C
P.to Rugiada: 39°F , 4°C
Umidità: 62%
Barometro: 30.13 inHg , 1020.3 hPa
Clouds: Sereno
Visibility: 10 miles , 16 km
2019/12/08 02:53 KFTW 080253Z 13006KT 10SM CLR 11/04 A3013 RMK AO2 SLP204 T01060044 58007
 
KNFW - Fort Worth Nas, Texas, USA
Distance from Wildwood: SSE 36mi, 58km
Dati ricevuti: Dec 07, 2019 4:52pm
NOT Current
Mostly Cloudy
Mostly Cloudy
 Vento da ESE
Vento: ESE 5 mph , 7 km/h
Temperatura: 63°F , 17°C
P.to Rugiada: 36°F , 2°C
Umidità: 37%
Barometro: 30.17 inHg , 1021.7 hPa
Clouds: Mostly Cloudy
Visibility: 10 miles , 16 km
Cloud details: Few Clouds 22000 ft
Mostly Cloudy 30000 ft
2019/12/07 22:52 KNFW 072252Z 11004KT 10SM FEW220 BKN300 17/02 A3017 RMK SLP199 T01730022 VISNO N
KGLE - Gainesville, Texas, USA
Distance from Wildwood: NE 38mi, 61km
Dati ricevuti: Dec 07, 2019 9:35pm
Sereno
Sereno
 Vento da SSE
Vento: SSE 3 mph , 6 km/h
Temperatura: 46°F , 8°C
P.to Rugiada: 37°F , 3°C
Umidità: 71%
Barometro: 30.13 inHg , 1020.3 hPa
Clouds: Sereno
Visibility: 10 miles , 16 km
2019/12/08 03:35 KGLE 080335Z AUTO 15003KT 10SM CLR 08/03 A3013 RMK AO2 T00760030
 
KMWL - Mineral Wells, Texas, USA
Distance from Wildwood: SO 41mi, 65km
Dati ricevuti: Dec 07, 2019 8:53pm
Sereno
Sereno
 Vento da SE
Vento: SE 9 mph , 15 km/h
Temperatura: 48°F , 9°C
Temperatura Vento: 44°F , 7°C
P.to Rugiada: 39°F , 4°C
Umidità: 71%
Barometro: 30.11 inHg , 1019.6 hPa
Clouds: Sereno
Visibility: 10 miles , 16 km
2019/12/08 02:53 KMWL 080253Z AUTO 14008KT 10SM CLR 09/04 A3011 RMK AO2 SLP196 T00940039 58007
KDFW - Dallas/Ft Worth, Texas, USA
Distance from Wildwood: ESE 45mi, 73km
Dati ricevuti: Dec 07, 2019 8:53pm
Few Clouds
Few Clouds
 Vento da SSE
Vento: SSE 8 mph , 13 km/h
Temperatura: 52°F , 11°C
P.to Rugiada: 43°F , 6°C
Umidità: 72%
Barometro: 30.12 inHg , 1020 hPa
Clouds: Few Clouds
Visibility: 10 miles , 16 km
Cloud details: Few Clouds 30000 ft
2019/12/08 02:53 KDFW 080253Z 16007KT 10SM FEW300 11/06 A3012 RMK AO2 SLP199 T01060056 58009